createdAt,value
2018-10-17T00:01:40.904Z,57.50
2018-10-17T00:04:09.169Z,57.60
2018-10-17T00:06:37.456Z,57.60
2018-10-17T00:09:07.457Z,57.60
2018-10-17T00:11:35.872Z,57.70
2018-10-17T00:14:04.388Z,57.70
2018-10-17T00:16:32.652Z,57.80
2018-10-17T00:19:00.956Z,57.90
2018-10-17T00:21:29.216Z,57.90
2018-10-17T00:23:57.478Z,58.00
2018-10-17T00:26:25.800Z,58.10
2018-10-17T00:28:54.125Z,58.20
2018-10-17T00:31:22.479Z,58.40
2018-10-17T00:33:50.740Z,58.50
2018-10-17T00:36:19.029Z,58.60
2018-10-17T00:38:47.266Z,58.60
2018-10-17T00:41:15.585Z,58.70
2018-10-17T00:43:43.866Z,58.80
2018-10-17T00:46:12.176Z,59.10
2018-10-17T00:48:40.497Z,59.40
2018-10-17T00:51:08.781Z,59.50
2018-10-17T00:53:37.035Z,59.70
2018-10-17T00:56:05.982Z,59.80
2018-10-17T00:58:35.069Z,60.00
2018-10-17T01:01:04.516Z,60.20
2018-10-17T01:03:32.764Z,60.20
2018-10-17T01:06:01.049Z,60.20
2018-10-17T01:08:29.316Z,60.00
2018-10-17T01:10:57.642Z,60.10
2018-10-17T01:13:26.116Z,60.10
2018-10-17T01:15:54.388Z,60.00
2018-10-17T01:18:22.647Z,59.90
2018-10-17T01:20:50.895Z,59.80
2018-10-17T01:23:19.177Z,59.80
2018-10-17T01:25:47.436Z,59.70
2018-10-17T01:28:15.696Z,59.70
2018-10-17T01:30:43.993Z,59.80
2018-10-17T01:33:12.272Z,59.80
2018-10-17T01:35:40.537Z,59.80
2018-10-17T01:38:08.814Z,59.90
2018-10-17T01:40:37.048Z,59.90
2018-10-17T01:43:05.325Z,60.00
2018-10-17T01:45:33.612Z,60.00
2018-10-17T01:48:01.909Z,60.20
2018-10-17T01:50:30.225Z,60.20
2018-10-17T01:52:58.518Z,60.50
2018-10-17T01:55:26.851Z,60.70
2018-10-17T01:57:55.080Z,60.90
2018-10-17T02:00:23.364Z,61.10
2018-10-17T02:02:51.838Z,61.40
2018-10-17T02:05:20.284Z,61.80
2018-10-17T02:07:48.586Z,61.90
2018-10-17T02:10:16.860Z,62.10
2018-10-17T02:12:45.121Z,62.40
2018-10-17T02:15:13.393Z,62.50
2018-10-17T02:17:41.644Z,62.40
2018-10-17T02:20:09.916Z,62.60
2018-10-17T02:22:38.199Z,62.80
2018-10-17T02:25:06.662Z,62.90
2018-10-17T02:27:34.907Z,63.20
2018-10-17T02:30:03.342Z,63.50
2018-10-17T02:32:31.452Z,63.70
2018-10-17T02:35:05.250Z,63.90
2018-10-17T02:37:33.492Z,64.30
2018-10-17T02:40:01.821Z,64.30
2018-10-17T02:42:30.074Z,64.70
2018-10-17T02:44:58.425Z,64.90
2018-10-17T02:47:26.657Z,65.10
2018-10-17T02:49:55.096Z,65.40
2018-10-17T02:52:23.358Z,65.40
2018-10-17T02:54:51.658Z,65.50
2018-10-17T02:57:19.945Z,65.60
2018-10-17T02:59:48.221Z,65.90
2018-10-17T03:02:21.535Z,66.10
2018-10-17T03:05:04.391Z,66.20
2018-10-17T03:07:37.484Z,66.20
2018-10-17T03:10:05.863Z,66.10
2018-10-17T03:12:34.180Z,66.30
2018-10-17T03:15:02.513Z,66.30
2018-10-17T03:17:30.806Z,66.50
2018-10-17T03:19:59.106Z,66.40
2018-10-17T03:22:27.440Z,66.50
2018-10-17T03:24:55.842Z,66.50
2018-10-17T03:27:24.028Z,66.40
2018-10-17T03:29:52.469Z,66.40
2018-10-17T03:35:11.453Z,66.70
2018-10-17T03:37:39.668Z,66.60
2018-10-17T03:40:08.083Z,67.00
2018-10-17T03:42:36.333Z,67.20
2018-10-17T03:45:05.021Z,67.30
2018-10-17T03:47:33.340Z,67.30
2018-10-17T03:50:01.679Z,67.50
2018-10-17T03:52:29.933Z,67.60
2018-10-17T03:54:58.331Z,67.70
2018-10-17T03:57:26.661Z,67.80
2018-10-17T03:59:55.075Z,68.00
2018-10-17T04:02:23.379Z,68.10
2018-10-17T04:04:51.716Z,68.20
2018-10-17T04:07:20.114Z,68.30
2018-10-17T04:09:48.364Z,68.40
2018-10-17T04:12:16.664Z,68.50
2018-10-17T04:14:44.944Z,68.70
2018-10-17T04:17:13.519Z,68.80
2018-10-17T04:19:41.605Z,69.00
2018-10-17T04:22:09.884Z,69.10
2018-10-17T04:24:38.193Z,69.30
2018-10-17T04:27:06.517Z,69.40
2018-10-17T04:29:34.857Z,69.60
2018-10-17T04:32:03.293Z,69.60
2018-10-17T04:34:31.660Z,69.70
2018-10-17T04:37:00.149Z,69.70
2018-10-17T04:39:28.378Z,69.80
2018-10-17T04:41:56.786Z,70.20
2018-10-17T04:44:25.071Z,70.10
2018-10-17T04:46:53.427Z,70.40
2018-10-17T04:49:21.704Z,70.70
2018-10-17T04:51:49.972Z,71.00
2018-10-17T04:54:18.337Z,71.00
2018-10-17T04:56:46.635Z,71.30
2018-10-17T04:59:15.215Z,71.40
2018-10-17T05:01:43.421Z,71.60
2018-10-17T05:04:12.248Z,71.90
2018-10-17T05:06:40.545Z,71.90
2018-10-17T05:09:09.941Z,72.00
2018-10-17T05:14:29.256Z,72.50
2018-10-17T05:16:57.591Z,72.40
2018-10-17T05:19:25.861Z,72.70
2018-10-17T05:21:54.160Z,73.00
2018-10-17T05:24:22.469Z,73.00
2018-10-17T05:26:50.820Z,73.00
2018-10-17T05:29:20.265Z,73.10
2018-10-17T05:31:48.545Z,73.40
2018-10-17T05:34:16.865Z,73.60
2018-10-17T05:36:45.141Z,73.60
2018-10-17T05:39:13.513Z,73.80
2018-10-17T05:41:41.845Z,73.80
2018-10-17T05:44:10.232Z,73.90
2018-10-17T05:46:38.497Z,74.10
2018-10-17T05:49:07.010Z,74.30
2018-10-17T05:51:35.220Z,74.20
2018-10-17T05:54:03.577Z,74.50
2018-10-17T05:56:31.900Z,74.90
2018-10-17T05:59:00.235Z,75.00
2018-10-17T06:01:28.631Z,75.20
2018-10-17T06:12:49.800Z,70.80
2018-10-17T06:15:18.161Z,74.80
2018-10-17T06:17:46.538Z,77.40
2018-10-17T06:20:14.818Z,78.70
2018-10-17T06:22:43.126Z,79.50
2018-10-17T06:25:11.638Z,79.70
2018-10-17T06:27:39.909Z,79.80
2018-10-17T06:30:09.543Z,79.90
2018-10-17T06:32:37.848Z,79.70
2018-10-17T06:35:06.703Z,79.70
2018-10-17T06:37:35.226Z,79.60
2018-10-17T06:40:03.549Z,79.70
2018-10-17T06:42:31.989Z,79.60
2018-10-17T06:45:00.268Z,79.60
2018-10-17T06:47:28.553Z,79.70
2018-10-17T06:49:56.919Z,79.80
2018-10-17T06:52:25.196Z,79.80
2018-10-17T06:54:53.608Z,79.90
2018-10-17T06:57:21.924Z,79.90
2018-10-17T06:59:50.240Z,80.00
2018-10-17T07:02:19.138Z,80.00
2018-10-17T07:04:47.425Z,79.90
2018-10-17T07:07:15.802Z,80.00
2018-10-17T07:09:44.257Z,80.00
2018-10-17T07:12:12.539Z,80.00
2018-10-17T07:14:40.882Z,80.10
2018-10-17T07:17:09.233Z,80.00
2018-10-17T07:19:37.492Z,80.40
2018-10-17T07:22:05.857Z,80.80
2018-10-17T07:24:34.341Z,81.10
2018-10-17T07:27:03.143Z,81.60
2018-10-17T07:29:31.678Z,82.00
2018-10-17T07:31:59.876Z,82.50
2018-10-17T07:34:28.184Z,83.10
2018-10-17T07:36:56.493Z,83.40
2018-10-17T07:39:24.804Z,83.60
2018-10-17T07:41:53.364Z,83.80
2018-10-17T07:44:21.601Z,84.10
2018-10-17T07:46:49.912Z,84.00
2018-10-17T07:49:18.245Z,84.00
2018-10-17T07:51:46.790Z,83.80
2018-10-17T07:54:15.432Z,83.80
2018-10-17T07:56:43.601Z,83.70
2018-10-17T07:59:11.906Z,83.70
2018-10-17T08:01:40.226Z,83.40
2018-10-17T08:04:08.560Z,83.40
2018-10-17T08:06:37.043Z,83.20
2018-10-17T08:09:08.681Z,83.30
2018-10-17T08:11:37.324Z,83.30
2018-10-17T08:14:05.857Z,83.40
2018-10-17T08:16:34.138Z,83.60
2018-10-17T08:19:02.534Z,83.80
2018-10-17T08:21:31.130Z,84.10
2018-10-17T08:23:59.736Z,84.30
2018-10-17T08:26:28.200Z,84.80
2018-10-17T08:28:56.466Z,85.00
2018-10-17T08:31:24.846Z,85.40
2018-10-17T08:33:53.266Z,85.70
2018-10-17T08:36:21.746Z,86.00
2018-10-17T08:38:49.906Z,86.50
2018-10-17T08:41:18.197Z,86.70
2018-10-17T08:43:46.501Z,86.80
2018-10-17T08:46:15.245Z,87.10
2018-10-17T08:48:43.837Z,87.50
2018-10-17T08:51:12.139Z,87.80
2018-10-17T08:53:40.536Z,88.10
2018-10-17T08:56:08.893Z,88.50
2018-10-17T08:58:37.229Z,88.90
2018-10-17T09:01:05.804Z,89.10
2018-10-17T09:03:34.251Z,89.30
2018-10-17T09:06:02.633Z,89.60
2018-10-17T09:08:30.869Z,90.00
2018-10-17T09:10:59.277Z,90.10
2018-10-17T09:13:27.667Z,90.30
2018-10-17T09:15:55.963Z,90.30
2018-10-17T09:18:24.237Z,90.50
2018-10-17T09:20:52.774Z,90.60
2018-10-17T09:23:20.899Z,90.80
2018-10-17T09:25:49.205Z,90.90
2018-10-17T09:28:17.561Z,90.90
2018-10-17T09:30:45.882Z,91.10
2018-10-17T09:33:14.108Z,91.30
2018-10-17T09:35:42.460Z,91.20
2018-10-17T09:38:10.742Z,91.30
2018-10-17T09:40:39.101Z,91.20
2018-10-17T09:43:07.516Z,91.20
2018-10-17T09:45:35.975Z,91.00
2018-10-17T09:48:04.953Z,91.10
2018-10-17T09:50:33.251Z,91.20
2018-10-17T09:53:01.549Z,91.30
2018-10-17T09:55:30.373Z,91.30
2018-10-17T09:57:58.780Z,91.30
2018-10-17T10:00:32.317Z,91.40
2018-10-17T10:03:00.657Z,91.50
2018-10-17T10:05:28.979Z,91.60
2018-10-17T10:07:57.401Z,91.80
2018-10-17T10:10:25.713Z,92.10
2018-10-17T10:12:54.136Z,91.70
2018-10-17T10:15:22.846Z,91.80
2018-10-17T10:17:51.181Z,91.70
2018-10-17T10:20:19.485Z,91.70
2018-10-17T10:22:47.950Z,91.60
2018-10-17T10:25:16.328Z,91.40
2018-10-17T10:27:44.634Z,91.30
2018-10-17T10:30:13.055Z,91.00
2018-10-17T10:32:41.333Z,90.60
2018-10-17T10:35:09.662Z,90.20
2018-10-17T10:37:37.973Z,89.90
2018-10-17T10:40:06.895Z,89.80
2018-10-17T10:42:35.237Z,89.60
2018-10-17T10:45:03.772Z,88.50
2018-10-17T10:47:32.123Z,88.30
2018-10-17T10:50:00.542Z,88.20
2018-10-17T10:52:28.817Z,88.10
2018-10-17T10:54:57.094Z,87.70
2018-10-17T10:57:25.398Z,87.50
2018-10-17T10:59:53.773Z,86.90
2018-10-17T11:02:22.050Z,86.50
2018-10-17T11:04:50.456Z,86.10
2018-10-17T11:07:18.655Z,85.30
2018-10-17T11:09:46.993Z,84.60
2018-10-17T11:12:15.276Z,83.70
2018-10-17T11:14:43.955Z,83.20
2018-10-17T11:17:12.115Z,82.80
2018-10-17T11:19:40.393Z,81.80
2018-10-17T11:22:08.688Z,81.00
2018-10-17T11:24:36.979Z,80.00
2018-10-17T11:27:05.425Z,79.90
2018-10-17T11:29:33.765Z,79.70
2018-10-17T11:32:02.252Z,79.20
2018-10-17T11:34:30.515Z,78.70
2018-10-17T11:36:58.806Z,78.20
2018-10-17T11:39:27.129Z,77.80
2018-10-17T11:41:55.506Z,77.70
2018-10-17T11:44:24.106Z,76.80
2018-10-17T11:46:52.446Z,77.00
2018-10-17T11:49:20.701Z,77.60
2018-10-17T11:51:48.996Z,77.60
2018-10-17T11:54:17.361Z,77.40
2018-10-17T11:56:45.689Z,77.80
2018-10-17T12:02:05.045Z,77.90
2018-10-17T12:04:33.577Z,77.40
2018-10-17T12:07:01.887Z,78.20
2018-10-17T12:09:30.225Z,78.10
2018-10-17T12:11:58.631Z,77.50
2018-10-17T12:14:26.860Z,77.10
2018-10-17T12:16:55.204Z,78.00
2018-10-17T12:19:23.500Z,77.40
2018-10-17T12:21:51.805Z,77.90
2018-10-17T12:24:20.403Z,78.30
2018-10-17T12:26:48.699Z,78.10
2018-10-17T12:29:17.065Z,78.60
2018-10-17T12:31:45.356Z,78.80
2018-10-17T12:34:13.644Z,78.40
2018-10-17T12:36:41.970Z,78.80
2018-10-17T12:39:12.229Z,78.90
2018-10-17T12:41:40.862Z,79.20
2018-10-17T12:44:08.980Z,78.80
2018-10-17T12:46:37.459Z,78.20
2018-10-17T12:49:05.796Z,77.60
2018-10-17T12:51:34.114Z,76.70
2018-10-17T12:54:02.509Z,76.70
2018-10-17T12:56:30.843Z,75.50
2018-10-17T12:58:59.193Z,74.90
2018-10-17T13:01:27.585Z,74.60
2018-10-17T13:03:55.876Z,74.30
2018-10-17T13:06:24.489Z,72.60
2018-10-17T13:08:52.781Z,71.70
2018-10-17T13:11:21.130Z,71.40
2018-10-17T13:13:49.520Z,71.00
2018-10-17T13:16:18.261Z,70.60
2018-10-17T13:18:46.701Z,70.20
2018-10-17T13:21:15.088Z,69.40
2018-10-17T13:23:43.590Z,68.40
2018-10-17T13:26:11.925Z,65.90
2018-10-17T13:28:40.255Z,63.80
2018-10-17T13:31:08.643Z,60.00
2018-10-17T13:33:36.994Z,57.20
2018-10-17T13:36:05.338Z,55.30
2018-10-17T13:38:33.683Z,52.50
2018-10-17T13:41:02.039Z,49.90
2018-10-17T13:43:30.304Z,47.60
2018-10-17T13:45:58.560Z,45.90
2018-10-17T13:48:26.941Z,43.60
2018-10-17T13:50:55.244Z,41.90
2018-10-17T13:53:23.613Z,40.30
2018-10-17T13:55:51.978Z,38.60
2018-10-17T13:58:20.460Z,38.90
2018-10-17T14:00:48.751Z,37.20
2018-10-17T14:03:17.061Z,37.00
2018-10-17T14:05:45.369Z,36.90
2018-10-17T14:08:13.689Z,36.60
2018-10-17T14:10:41.963Z,35.80
2018-10-17T14:13:10.306Z,35.50
2018-10-17T14:15:38.615Z,36.10
2018-10-17T14:18:06.970Z,35.80
2018-10-17T14:20:35.372Z,36.00
2018-10-17T14:23:03.716Z,35.90
2018-10-17T14:25:32.074Z,36.00
2018-10-17T14:28:00.498Z,35.90
2018-10-17T14:30:28.892Z,35.70
2018-10-17T14:32:57.234Z,35.40
2018-10-17T14:35:25.504Z,35.20
2018-10-17T14:37:53.938Z,35.00
2018-10-17T14:40:22.167Z,34.80
2018-10-17T14:42:50.488Z,34.70
2018-10-17T14:45:19.103Z,35.00
2018-10-17T14:47:47.339Z,35.00
2018-10-17T14:50:15.660Z,35.80
2018-10-17T14:52:43.997Z,36.30
2018-10-17T14:55:12.290Z,37.50
2018-10-17T14:57:40.658Z,38.50
2018-10-17T15:00:12.437Z,39.80
2018-10-17T15:02:42.307Z,41.20
2018-10-17T15:05:11.053Z,42.50
2018-10-17T15:07:39.951Z,43.30
2018-10-17T15:10:08.394Z,44.10
2018-10-17T15:12:36.749Z,44.70
2018-10-17T15:15:05.867Z,45.50
2018-10-17T15:17:34.352Z,46.00
2018-10-17T15:20:02.661Z,46.50
2018-10-17T15:22:30.993Z,47.00
2018-10-17T15:24:59.340Z,47.80
2018-10-17T15:27:27.658Z,48.50
2018-10-17T15:29:55.960Z,49.20
2018-10-17T15:32:24.236Z,49.70
2018-10-17T15:34:52.557Z,50.20
2018-10-17T15:37:20.829Z,50.70
2018-10-17T15:39:49.124Z,51.10
2018-10-17T15:42:17.524Z,51.50
2018-10-17T15:44:45.796Z,51.90
2018-10-17T15:47:14.357Z,52.30
2018-10-17T15:49:42.606Z,52.60
2018-10-17T15:52:10.980Z,52.90
2018-10-17T15:54:39.248Z,53.20
2018-10-17T15:57:07.892Z,53.40
2018-10-17T15:59:36.167Z,53.70
2018-10-17T16:02:04.736Z,54.10
2018-10-17T16:04:33.056Z,54.30
2018-10-17T16:07:01.438Z,54.60
2018-10-17T16:09:29.717Z,54.90
2018-10-17T16:11:58.141Z,55.30
2018-10-17T16:14:26.466Z,55.70
2018-10-17T16:16:54.879Z,55.90
2018-10-17T16:19:23.141Z,56.30
2018-10-17T16:21:51.433Z,56.70
2018-10-17T16:24:19.810Z,56.90
2018-10-17T16:26:48.046Z,57.40
2018-10-17T16:29:16.656Z,57.80
2018-10-17T16:31:44.974Z,58.20
2018-10-17T16:34:13.337Z,58.70
2018-10-17T16:36:41.624Z,59.10
2018-10-17T16:39:11.324Z,59.50
2018-10-17T16:41:39.643Z,60.00
2018-10-17T16:44:08.508Z,60.60
2018-10-17T16:46:37.156Z,61.30
2018-10-17T16:49:05.953Z,61.80
2018-10-17T16:51:34.271Z,62.30
2018-10-17T16:54:02.907Z,62.60
2018-10-17T16:56:31.338Z,63.10
2018-10-17T16:58:59.675Z,63.70
2018-10-17T17:01:28.043Z,64.30
2018-10-17T17:03:56.560Z,64.90
2018-10-17T17:06:25.115Z,65.50
2018-10-17T17:08:53.786Z,66.10
2018-10-17T17:11:22.355Z,66.50
2018-10-17T17:13:50.676Z,66.80
2018-10-17T17:16:19.083Z,67.30
2018-10-17T17:18:47.400Z,67.50
2018-10-17T17:21:16.075Z,67.80
2018-10-17T17:23:44.379Z,68.20
2018-10-17T17:26:12.671Z,68.60
2018-10-17T17:28:41.057Z,69.00
2018-10-17T17:31:09.409Z,69.40
2018-10-17T17:33:37.819Z,69.70
2018-10-17T17:36:06.173Z,70.00
2018-10-17T17:38:35.321Z,70.30
2018-10-17T17:41:03.630Z,70.70
2018-10-17T17:43:32.060Z,71.00
2018-10-17T17:46:00.466Z,71.20
2018-10-17T17:48:28.736Z,71.50
2018-10-17T17:50:57.008Z,71.90
2018-10-17T17:53:25.361Z,72.10
2018-10-17T17:55:53.633Z,72.50
2018-10-17T17:58:22.004Z,72.80
2018-10-17T18:00:50.260Z,73.20
2018-10-17T18:03:18.573Z,73.50
2018-10-17T18:05:46.866Z,73.90
2018-10-17T18:08:15.193Z,74.20
2018-10-17T18:10:43.514Z,74.40
2018-10-17T18:13:11.809Z,74.60
2018-10-17T18:15:40.320Z,74.90
2018-10-17T18:18:08.610Z,75.20
2018-10-17T18:20:36.926Z,75.70
2018-10-17T18:23:05.940Z,75.90
2018-10-17T18:25:34.283Z,76.30
2018-10-17T18:28:03.123Z,76.70
2018-10-17T18:30:31.343Z,77.10
2018-10-17T18:32:59.632Z,77.50
2018-10-17T18:35:28.110Z,77.80
2018-10-17T18:37:56.449Z,78.10
2018-10-17T18:40:24.820Z,78.20
2018-10-17T18:42:53.982Z,78.70
2018-10-17T18:45:22.963Z,78.90
2018-10-17T18:47:51.605Z,79.20
2018-10-17T18:50:20.104Z,79.40
2018-10-17T18:52:48.887Z,79.70
2018-10-17T18:55:17.440Z,80.00
2018-10-17T18:57:46.177Z,80.30
2018-10-17T19:00:15.467Z,80.50
2018-10-17T19:02:43.936Z,81.00
2018-10-17T19:05:12.483Z,81.20
2018-10-17T19:07:41.012Z,81.70
2018-10-17T19:10:10.759Z,81.70
2018-10-17T19:12:39.708Z,81.90
2018-10-17T19:15:08.847Z,82.10
2018-10-17T19:17:37.439Z,82.60
2018-10-17T19:20:06.251Z,82.60
2018-10-17T19:22:34.552Z,82.90
2018-10-17T19:25:03.865Z,82.90
2018-10-17T19:27:32.448Z,83.10
2018-10-17T19:30:00.782Z,83.40
2018-10-17T19:32:29.325Z,83.60
2018-10-17T19:34:58.204Z,84.10
2018-10-17T19:37:26.830Z,84.20
2018-10-17T19:39:55.287Z,84.60
2018-10-17T19:42:23.770Z,84.80
2018-10-17T19:44:52.202Z,85.00
2018-10-17T19:47:20.725Z,85.20
2018-10-17T19:49:49.236Z,85.30
2018-10-17T19:52:18.294Z,85.70
2018-10-17T19:54:46.637Z,86.00
2018-10-17T19:57:14.978Z,86.30
2018-10-17T19:59:43.352Z,86.30
2018-10-17T20:02:11.734Z,86.50
2018-10-17T20:04:40.167Z,86.60
2018-10-17T20:07:08.806Z,86.90
2018-10-17T20:09:37.649Z,87.10
2018-10-17T20:12:06.400Z,87.10
2018-10-17T20:14:34.796Z,87.10
2018-10-17T20:17:03.321Z,87.20
2018-10-17T20:19:31.979Z,87.50
2018-10-17T20:22:00.548Z,87.90
2018-10-17T20:24:29.149Z,88.10
2018-10-17T20:26:57.795Z,88.60
2018-10-17T20:29:26.280Z,88.90
2018-10-17T20:31:55.148Z,89.20
2018-10-17T20:34:23.830Z,89.00
2018-10-17T20:36:52.122Z,89.20
2018-10-17T20:39:20.449Z,89.50
2018-10-17T20:41:48.800Z,89.60
2018-10-17T20:44:17.121Z,89.70
2018-10-17T20:46:45.409Z,89.90
2018-10-17T20:49:13.789Z,90.00
2018-10-17T20:51:42.136Z,90.00
2018-10-17T20:54:10.428Z,90.10
2018-10-17T20:56:38.719Z,90.00
2018-10-17T20:59:07.024Z,90.00
2018-10-17T21:01:35.847Z,90.10
2018-10-17T21:04:04.455Z,90.10
2018-10-17T21:06:32.737Z,90.10
2018-10-17T21:09:01.072Z,90.20
2018-10-17T21:11:29.372Z,90.30
2018-10-17T21:13:57.673Z,90.30
2018-10-17T21:16:26.133Z,90.30
2018-10-17T21:18:54.486Z,90.30
2018-10-17T21:21:22.689Z,90.30
2018-10-17T21:23:50.998Z,90.60
2018-10-17T21:26:19.277Z,90.50
2018-10-17T21:28:47.605Z,90.60
2018-10-17T21:31:15.888Z,90.70
2018-10-17T21:33:44.257Z,90.80
2018-10-17T21:36:12.573Z,90.80
2018-10-17T21:38:40.876Z,90.80
2018-10-17T21:41:09.182Z,90.90
2018-10-17T21:43:37.497Z,91.00
2018-10-17T21:46:05.909Z,91.10
2018-10-17T21:48:34.227Z,91.10
2018-10-17T21:51:02.549Z,91.20
2018-10-17T21:53:30.949Z,91.20
2018-10-17T21:55:59.316Z,91.30
2018-10-17T21:58:27.584Z,91.40
2018-10-17T22:00:55.917Z,91.40
2018-10-17T22:03:24.212Z,91.50
2018-10-17T22:05:52.530Z,91.60
2018-10-17T22:08:20.861Z,91.60
2018-10-17T22:10:49.192Z,91.80
2018-10-17T22:13:17.508Z,91.70
2018-10-17T22:15:45.894Z,91.80
2018-10-17T22:18:14.224Z,91.80
2018-10-17T22:20:42.516Z,91.90
2018-10-17T22:23:11.077Z,92.00
2018-10-17T22:25:39.497Z,92.00
2018-10-17T22:28:07.772Z,92.10
2018-10-17T22:30:36.104Z,92.40
2018-10-17T22:33:04.412Z,92.10
2018-10-17T22:35:32.736Z,92.20
2018-10-17T22:38:01.076Z,92.20
2018-10-17T22:40:29.328Z,92.20
2018-10-17T22:42:57.637Z,92.20
2018-10-17T22:45:25.916Z,92.30
2018-10-17T22:47:54.268Z,92.30
2018-10-17T22:50:22.566Z,92.30
2018-10-17T22:52:51.009Z,92.40
2018-10-17T22:55:19.496Z,92.40
2018-10-17T22:57:47.782Z,92.40
2018-10-17T23:00:16.050Z,92.60
2018-10-17T23:02:44.370Z,92.60
2018-10-17T23:05:12.684Z,93.00
2018-10-17T23:07:40.986Z,92.60
2018-10-17T23:10:09.255Z,92.70
2018-10-17T23:12:37.565Z,92.70
2018-10-17T23:15:10.234Z,92.80
2018-10-17T23:17:38.589Z,92.80
2018-10-17T23:20:07.053Z,93.00
2018-10-17T23:22:35.315Z,92.90
2018-10-17T23:25:03.881Z,92.90
2018-10-17T23:27:32.188Z,92.90
2018-10-17T23:30:00.661Z,92.80
2018-10-17T23:32:28.936Z,92.90
2018-10-17T23:34:57.464Z,93.00
2018-10-17T23:37:25.760Z,92.90
2018-10-17T23:39:54.049Z,93.00
2018-10-17T23:42:22.394Z,93.00
2018-10-17T23:45:02.672Z,92.90
2018-10-17T23:47:31.045Z,92.90
2018-10-17T23:49:59.403Z,92.80
2018-10-17T23:52:27.693Z,92.90
2018-10-17T23:54:55.949Z,92.90
2018-10-17T23:57:25.602Z,93.00
2018-10-17T23:59:55.870Z,93.10
